Time;durP1;ratioP1;P1;durP2;ratioP2;P2;SDS_P1;SDS_P2;PMS_P1;PMS_P2;Temp;Humidity;BMP_temperature;BMP_pressure;BME280_temperature;BME280_humidity;BME280_pressure;Samples;Min_cycle;Max_cycle;Signal;HPM_P1;HPM_P2
2021/12/29 00:02:18;;;;;;;109.15;29.17;;;;;;;7.98;100.00;99318.78;5045602;28;20048;-71
2021/12/29 00:04:44;;;;;;;95.82;27.50;;;;;;;8.01;100.00;99326.38;5043990;28;20028;-70
2021/12/29 00:07:13;;;;;;;95.22;26.00;;;;;;;7.61;100.00;99313.75;5045312;28;20041;-71
2021/12/29 00:09:42;;;;;;;90.40;27.25;;;;;;;7.80;100.00;99323.28;5045515;28;20033;-71
2021/12/29 00:12:09;;;;;;;75.80;25.25;;;;;;;7.77;100.00;99336.75;5044883;28;20266;-75
2021/12/29 00:14:35;;;;;;;75.30;24.80;;;;;;;7.87;100.00;99334.03;5045040;28;20033;-75
2021/12/29 00:17:01;;;;;;;84.07;25.65;;;;;;;7.87;100.00;99334.03;5045433;28;20021;-72
2021/12/29 00:19:27;;;;;;;75.45;24.20;;;;;;;7.92;100.00;99326.50;5045177;28;20029;-72
2021/12/29 00:21:52;;;;;;;58.25;19.90;;;;;;;7.94;100.00;99332.44;5044724;28;20056;-76
2021/12/29 00:24:18;;;;;;;68.10;22.70;;;;;;;7.99;100.00;99330.97;5045241;28;20028;-71
2021/12/29 00:26:43;;;;;;;74.30;22.98;;;;;;;7.94;100.00;99335.88;5045063;28;20033;-76
2021/12/29 00:29:09;;;;;;;72.85;22.17;;;;;;;7.90;100.00;99313.47;5044806;28;20277;-76
2021/12/29 00:31:34;;;;;;;65.70;21.75;;;;;;;7.85;100.00;99309.63;5044938;28;20053;-71
2021/12/29 00:34:00;;;;;;;63.40;21.77;;;;;;;7.72;100.00;99306.59;5044917;28;20040;-76
2021/12/29 00:36:26;;;;;;;69.50;22.88;;;;;;;7.82;100.00;99323.13;5044905;28;20200;-71
2021/12/29 00:38:53;;;;;;;65.35;23.85;;;;;;;7.80;100.00;99317.19;5040125;28;20093;-71
2021/12/29 00:41:19;;;;;;;63.95;22.27;;;;;;;7.88;100.00;99325.97;5044489;28;20025;-76
2021/12/29 00:43:46;;;;;;;58.22;23.10;;;;;;;7.88;100.00;99325.97;5041378;28;20133;-72
2021/12/29 00:46:13;;;;;;;59.15;20.98;;;;;;;7.84;100.00;99308.81;5044907;28;20022;-72
2021/12/29 00:48:44;;;;;;;59.78;22.52;;;;;;;7.83;100.00;99317.69;5042494;28;20255;-76
2021/12/29 00:51:10;;;;;;;58.53;19.95;;;;;;;7.72;100.00;99317.13;5044434;28;20044;-71
2021/12/29 00:53:36;;;;;;;63.83;21.95;;;;;;;7.59;100.00;99307.81;5034865;28;20221;-71
2021/12/29 00:56:03;;;;;;;62.13;23.70;;;;;;;7.60;100.00;99320.00;5023714;28;20037;-75
2021/12/29 00:58:29;;;;;;;57.28;21.63;;;;;;;7.65;100.00;99327.44;5029925;28;20363;-72
2021/12/29 01:00:55;;;;;;;58.00;21.63;;;;;;;7.76;100.00;99324.56;5042000;28;20347;-72
2021/12/29 01:03:22;;;;;;;52.60;19.08;;;;;;;7.69;100.00;99305.91;5042018;28;20060;-71
2021/12/29 01:05:47;;;;;;;48.88;19.90;;;;;;;7.79;100.00;99326.06;5041383;28;20033;-75
2021/12/29 01:08:13;;;;;;;50.00;18.13;;;;;;;7.68;100.00;99312.16;5043183;28;20101;-75
2021/12/29 01:10:41;;;;;;;53.15;20.05;;;;;;;7.74;100.00;99309.88;5040214;28;20053;-75
2021/12/29 01:13:09;;;;;;;51.67;17.05;;;;;;;7.93;100.00;99328.13;5023228;28;20087;-72
2021/12/29 01:15:55;;;;;;;39.30;17.40;;;;;;;7.86;100.00;99335.00;5023001;28;20092;-71
2021/12/29 01:18:21;;;;;;;43.35;15.85;;;;;;;7.61;100.00;99319.03;5024279;28;20286;-71
2021/12/29 01:20:46;;;;;;;39.58;15.15;;;;;;;7.66;100.00;99323.84;5028723;28;20029;-71
2021/12/29 01:23:12;;;;;;;38.75;16.38;;;;;;;7.71;100.00;99315.47;5037195;28;20030;-72
2021/12/29 01:25:37;;;;;;;35.38;15.30;;;;;;;7.72;100.00;99306.59;5036211;28;20270;-76
2021/12/29 01:28:03;;;;;;;35.03;14.25;;;;;;;7.47;100.00;99318.75;5036349;28;20029;-71
2021/12/29 01:30:28;;;;;;;45.13;15.65;;;;;;;7.48;100.00;99307.22;5037687;28;20085;-71
2021/12/29 01:32:53;;;;;;;30.38;13.38;;;;;;;7.49;100.00;99316.78;5035612;28;20096;-76
2021/12/29 01:35:19;;;;;;;32.30;13.63;;;;;;;7.41;100.00;99304.38;5037120;28;20030;-75
2021/12/29 01:37:44;;;;;;;33.28;14.00;;;;;;;7.46;100.00;99275.78;5036167;28;20319;-76
2021/12/29 01:40:14;;;;;;;29.50;14.27;;;;;;;7.77;100.00;99317.50;5037539;28;20222;-76
2021/12/29 01:42:40;;;;;;;30.67;12.68;;;;;;;7.72;100.00;99296.88;5033012;28;20042;-75
2021/12/29 01:45:07;;;;;;;28.10;12.13;;;;;;;7.60;100.00;99296.28;5036403;28;20091;-76
2021/12/29 01:47:33;;;;;;;25.23;12.25;;;;;;;7.43;100.00;99286.63;5048368;28;20385;-76
2021/12/29 01:50:00;;;;;;;31.60;13.80;;;;;;;7.73;100.00;99292.44;5040575;28;20033;-75
2021/12/29 01:52:31;;;;;;;30.50;12.13;;;;;;;7.72;100.00;99299.50;5041182;28;20056;-72
2021/12/29 01:54:57;;;;;;;26.35;12.50;;;;;;;7.79;100.00;99304.97;5037258;28;20308;-76
2021/12/29 01:57:22;;;;;;;25.92;12.20;;;;;;;7.81;100.00;99308.28;5034128;28;20025;-76
2021/12/29 01:59:48;;;;;;;25.75;11.73;;;;;;;7.91;100.00;99301.94;5035522;28;20095;-71
2021/12/29 02:02:14;;;;;;;26.27;12.20;;;;;;;7.91;100.00;99299.28;5040497;28;20040;-72
2021/12/29 02:04:44;;;;;;;26.77;11.52;;;;;;;7.86;100.00;99304.22;5040223;28;20096;-70
2021/12/29 02:07:11;;;;;;;20.70;10.48;;;;;;;7.85;100.00;99299.91;5036574;28;20320;-71
2021/12/29 02:09:37;;;;;;;23.48;10.45;;;;;;;7.66;100.00;99287.78;5035605;28;20045;-76
2021/12/29 02:12:03;;;;;;;19.58;9.75;;;;;;;7.75;100.00;99295.72;5035297;28;20087;-71
2021/12/29 02:14:29;;;;;;;18.88;9.43;;;;;;;7.64;100.00;99276.56;5035770;28;20087;-71
2021/12/29 02:16:54;;;;;;;20.73;9.57;;;;;;;7.24;100.00;99265.69;5036571;28;20025;-75
2021/12/29 02:19:22;;;;;;;19.38;9.45;;;;;;;7.51;100.00;99284.03;5034747;28;20033;-76
2021/12/29 02:21:56;;;;;;;22.30;9.93;;;;;;;7.42;100.00;99284.97;5036155;28;20025;-75
2021/12/29 02:24:34;;;;;;;22.33;10.30;;;;;;;7.45;100.00;99292.56;5035248;28;20191;-76
2021/12/29 02:27:01;;;;;;;18.58;9.65;;;;;;;7.48;100.00;99273.00;5041448;28;20097;-71
2021/12/29 02:29:26;;;;;;;18.13;9.13;;;;;;;7.38;100.00;99283.63;5039064;28;20073;-71
2021/12/29 02:31:52;;;;;;;17.75;9.77;;;;;;;7.25;100.00;99280.53;5035919;28;20041;-75
2021/12/29 02:34:18;;;;;;;21.85;9.95;;;;;;;7.25;100.00;99299.78;5034308;28;20033;-70
2021/12/29 02:36:45;;;;;;;17.75;10.00;;;;;;;7.30;100.00;99302.00;5037584;28;20026;-71
2021/12/29 02:39:20;;;;;;;28.17;11.98;;;;;;;7.41;100.00;99288.59;5041155;28;20037;-74
2021/12/29 02:41:52;;;;;;;19.80;10.05;;;;;;;7.43;100.00;99288.44;5036147;28;20092;-71
2021/12/29 02:44:29;;;;;;;23.92;10.48;;;;;;;7.36;100.00;99273.22;5036012;28;20025;-71
2021/12/29 02:46:57;;;;;;;22.88;10.75;;;;;;;7.15;100.00;99237.66;5035519;28;20033;-72
2021/12/29 02:49:24;;;;;;;20.58;10.13;;;;;;;7.61;100.00;99284.78;5035902;28;20097;-72
2021/12/29 02:51:50;;;;;;;24.45;10.48;;;;;;;7.55;100.00;99282.75;5033313;28;20381;-71
2021/12/29 02:54:16;;;;;;;21.20;10.25;;;;;;;7.55;100.00;99274.84;5035217;28;20052;-71
2021/12/29 02:56:43;;;;;;;24.13;11.43;;;;;;;7.47;100.00;99284.50;5038698;28;20060;-75
2021/12/29 02:59:09;;;;;;;25.58;11.27;;;;;;;7.55;100.00;99276.66;5038203;28;20345;-76
2021/12/29 03:01:34;;;;;;;21.83;11.18;;;;;;;7.38;100.00;99264.34;5036422;28;20033;-75
2021/12/29 03:04:04;;;;;;;22.67;10.95;;;;;;;7.50;100.00;99285.03;5040608;28;20159;-71
2021/12/29 03:06:30;;;;;;;26.33;11.60;;;;;;;7.61;100.00;99282.13;5038868;28;20255;-75
2021/12/29 03:08:55;;;;;;;24.65;10.60;;;;;;;7.72;100.00;99286.31;5036919;28;20035;-75
2021/12/29 03:11:21;;;;;;;25.40;10.93;;;;;;;7.55;100.00;99282.75;5034774;28;20335;-72
2021/12/29 03:13:46;;;;;;;23.52;10.48;;;;;;;7.44;100.00;99264.56;5041034;28;20208;-75
2021/12/29 03:16:12;;;;;;;24.02;10.80;;;;;;;7.38;100.00;99272.25;5038596;28;20100;-76
2021/12/29 03:18:39;;;;;;;22.40;11.27;;;;;;;7.32;100.00;99250.00;5038521;28;20041;-70
2021/12/29 03:21:05;;;;;;;21.70;10.65;;;;;;;7.43;100.00;99294.53;5041973;28;20101;-72
2021/12/29 03:23:31;;;;;;;22.05;9.82;;;;;;;7.56;100.00;99297.59;5039031;28;20320;-72
2021/12/29 03:25:56;;;;;;;20.20;9.57;;;;;;;7.40;100.00;99304.53;5045134;28;20049;-71
2021/12/29 03:28:23;;;;;;;21.40;9.65;;;;;;;7.47;100.00;99301.13;5043840;28;20227;-76
2021/12/29 03:30:53;;;;;;;17.42;9.55;;;;;;;7.42;100.00;99302.56;5045221;28;20052;-72
2021/12/29 03:33:19;;;;;;;20.10;9.32;;;;;;;7.48;100.00;99289.63;5043969;28;20469;-76
2021/12/29 03:35:48;;;;;;;20.50;9.77;;;;;;;7.39;100.00;99287.91;5043870;28;20355;-71
2021/12/29 03:38:17;;;;;;;21.45;8.93;;;;;;;7.28;100.00;99274.94;5043769;28;20038;-76
2021/12/29 03:40:43;;;;;;;17.13;8.85;;;;;;;7.30;100.00;99299.34;5045201;28;20034;-71
2021/12/29 03:43:10;;;;;;;16.67;8.60;;;;;;;7.25;100.00;99285.78;5043154;28;20045;-77
2021/12/29 03:45:37;;;;;;;18.27;8.90;;;;;;;7.10;100.00;99277.59;5045962;28;20061;-77
2021/12/29 03:48:08;;;;;;;19.77;9.07;;;;;;;7.15;100.00;99288.50;5042698;28;20040;-76
2021/12/29 03:50:34;;;;;;;16.65;9.63;;;;;;;7.24;100.00;99286.75;5034264;28;20260;-70
2021/12/29 03:52:59;;;;;;;19.30;9.10;;;;;;;7.20;100.00;99274.88;5038279;28;20330;-71
2021/12/29 03:55:25;;;;;;;19.17;9.65;;;;;;;7.09;100.00;99277.75;5042531;28;20041;-75
2021/12/29 03:57:50;;;;;;;17.73;9.38;;;;;;;7.14;100.00;99273.69;5043786;28;20041;-72
2021/12/29 04:00:18;;;;;;;17.13;8.75;;;;;;;6.85;100.00;99266.00;5038525;28;20033;-71
2021/12/29 04:02:44;;;;;;;15.80;8.75;;;;;;;6.88;100.00;99270.97;5038872;28;20101;-76
2021/12/29 04:05:12;;;;;;;16.80;9.65;;;;;;;6.84;100.00;99266.16;5037493;28;20227;-71
2021/12/29 04:07:37;;;;;;;20.05;9.55;;;;;;;6.88;100.00;99270.16;5041164;28;20022;-76
2021/12/29 04:10:05;;;;;;;21.67;9.82;;;;;;;6.93;100.00;99270.53;5043869;28;20255;-76
2021/12/29 04:12:30;;;;;;;19.67;9.48;;;;;;;6.89;100.00;99271.81;5041947;28;20021;-76
2021/12/29 04:14:56;;;;;;;16.42;8.63;;;;;;;6.94;100.00;99272.19;5045337;28;20036;-70
2021/12/29 04:17:26;;;;;;;15.30;8.27;;;;;;;6.98;100.00;99270.91;5042400;28;20025;-76
2021/12/29 04:22:36;;;;;;;16.75;8.27;;;;;;;7.11;100.00;99271.34;5023641;28;20053;-72
2021/12/29 04:25:03;;;;;;;18.98;9.60;;;;;;;6.98;100.00;99266.47;5043958;28;20034;-70
2021/12/29 04:27:29;;;;;;;16.98;8.90;;;;;;;6.96;100.00;99259.69;5042582;28;20027;-70
2021/12/29 04:29:54;;;;;;;13.73;8.70;;;;;;;6.99;100.00;99262.84;5038287;28;20037;-76
2021/12/29 04:32:19;;;;;;;15.02;8.00;;;;;;;7.20;100.00;99273.06;5028972;28;20038;-77
2021/12/29 04:34:45;;;;;;;15.43;8.30;;;;;;;7.22;100.00;99283.44;5028652;28;20033;-72
2021/12/29 04:37:11;;;;;;;15.80;9.05;;;;;;;7.36;100.00;99277.69;5044072;28;20196;-72
2021/12/29 04:39:37;;;;;;;17.17;9.00;;;;;;;7.15;100.00;99272.69;5041591;28;20033;-71
2021/12/29 04:42:02;;;;;;;15.60;8.77;;;;;;;7.16;100.00;99277.00;5044266;28;20029;-71
2021/12/29 04:44:28;;;;;;;17.08;8.95;;;;;;;7.34;100.00;99279.63;5043141;28;20025;-76
2021/12/29 04:46:55;;;;;;;14.80;7.90;;;;;;;7.27;100.00;99273.28;5036779;28;20025;-76
2021/12/29 04:49:26;;;;;;;14.13;8.50;;;;;;;7.26;100.00;99272.47;5038767;28;20025;-76
2021/12/29 04:52:13;;;;;;;14.05;8.45;;;;;;;7.18;100.00;99266.31;5042447;28;20047;-74
2021/12/29 04:54:38;;;;;;;12.65;7.07;;;;;;;7.00;100.00;99261.88;5035857;28;20041;-70
2021/12/29 04:57:04;;;;;;;17.50;8.10;;;;;;;7.03;100.00;99244.97;5024701;28;20029;-72
2021/12/29 04:59:30;;;;;;;14.77;7.97;;;;;;;6.98;100.00;99253.31;5024525;28;20105;-76
2021/12/29 05:01:56;;;;;;;14.60;8.93;;;;;;;6.81;100.00;99251.50;5024197;28;20065;-76
2021/12/29 05:04:29;;;;;;;14.48;8.02;;;;;;;6.92;100.00;99245.19;5024494;28;20370;-75
2021/12/29 05:09:39;;;;;;;;;;;;;;;6.70;100.00;99263.06;5024782;28;20084;-76
2021/12/29 05:12:06;;;;;;;16.20;9.45;;;;;;;6.66;100.00;99234.59;5028696;28;20246;-76
2021/12/29 05:14:31;;;;;;;15.52;9.10;;;;;;;6.86;100.00;99245.78;5043536;28;20037;-74
2021/12/29 05:16:56;;;;;;;15.45;9.10;;;;;;;6.83;100.00;99241.66;5044117;28;20261;-76
2021/12/29 05:19:22;;;;;;;14.27;8.52;;;;;;;6.96;100.00;99244.72;5044061;28;20046;-75
2021/12/29 05:21:47;;;;;;;15.90;9.02;;;;;;;7.22;100.00;99249.22;5044034;28;20039;-71
2021/12/29 05:24:13;;;;;;;17.90;8.93;;;;;;;7.26;100.00;99250.56;5043974;28;20045;-76
2021/12/29 05:26:39;;;;;;;14.60;8.88;;;;;;;7.31;100.00;99230.72;5043955;28;20017;-71
2021/12/29 05:29:04;;;;;;;17.95;8.15;;;;;;;7.11;100.00;99236.31;5043744;28;20037;-71
2021/12/29 05:31:30;;;;;;;14.70;8.73;;;;;;;7.33;100.00;99241.09;5043940;28;20081;-76
2021/12/29 05:33:57;;;;;;;16.10;8.90;;;;;;;6.95;100.00;99248.34;5043540;28;20041;-71
2021/12/29 05:36:24;;;;;;;19.27;10.43;;;;;;;6.94;100.00;99249.31;5044062;28;20228;-71
2021/12/29 05:38:49;;;;;;;19.45;10.18;;;;;;;6.83;100.00;99220.59;5043321;28;20117;-76
2021/12/29 05:41:15;;;;;;;19.35;10.10;;;;;;;6.75;100.00;99249.47;5043574;28;20315;-71
2021/12/29 05:43:40;;;;;;;22.13;11.77;;;;;;;6.89;100.00;99237.59;5043552;28;20029;-71
2021/12/29 05:46:06;;;;;;;22.52;12.20;;;;;;;6.83;100.00;99239.03;5043453;28;20095;-76
2021/12/29 05:48:33;;;;;;;26.48;12.35;;;;;;;6.61;100.00;99234.19;5043353;28;20036;-71
2021/12/29 05:50:59;;;;;;;26.42;13.00;;;;;;;6.68;100.00;99227.38;5043233;28;20033;-76
2021/12/29 05:53:25;;;;;;;28.25;15.02;;;;;;;6.46;100.00;99225.16;5042978;28;20097;-75
2021/12/29 05:55:50;;;;;;;25.13;14.10;;;;;;;6.40;100.00;99224.78;5043236;28;20033;-76
2021/12/29 05:58:16;;;;;;;30.75;14.43;;;;;;;6.46;100.00;99228.63;5043074;28;20038;-75
2021/12/29 06:00:41;;;;;;;29.43;14.83;;;;;;;6.54;100.00;99225.25;5041239;28;20067;-76
2021/12/29 06:03:07;;;;;;;29.92;14.55;;;;;;;6.33;100.00;99225.53;5036521;28;20044;-71
2021/12/29 06:05:33;;;;;;;30.23;14.48;;;;;;;6.47;100.00;99232.09;5041752;28;20061;-76
2021/12/29 06:07:59;;;;;;;31.93;14.17;;;;;;;6.33;100.00;99238.69;5037096;28;20026;-76
2021/12/29 06:10:24;;;;;;;34.33;16.23;;;;;;;6.38;100.00;99229.38;5041872;28;20033;-75
2021/12/29 06:12:50;;;;;;;30.20;15.40;;;;;;;6.40;100.00;99232.69;5039739;28;20043;-75
2021/12/29 06:15:15;;;;;;;40.57;18.57;;;;;;;6.40;100.00;99230.03;5036124;28;20040;-76
2021/12/29 06:17:41;;;;;;;37.97;18.17;;;;;;;6.32;100.00;99213.34;5036351;28;20041;-71
2021/12/29 06:20:09;;;;;;;33.80;17.67;;;;;;;6.47;100.00;99229.44;5039918;28;20040;-75
2021/12/29 06:22:35;;;;;;;36.30;17.63;;;;;;;6.46;100.00;99228.63;5041262;28;20039;-75
2021/12/29 06:25:01;;;;;;;37.80;17.77;;;;;;;6.41;100.00;99236.13;5036269;28;20067;-71
2021/12/29 06:27:26;;;;;;;37.35;18.25;;;;;;;6.45;100.00;99240.13;5036695;28;20029;-76
2021/12/29 06:29:52;;;;;;;33.63;15.70;;;;;;;6.40;100.00;99237.09;5036158;28;20089;-75
2021/12/29 06:32:18;;;;;;;31.27;15.60;;;;;;;6.26;100.00;99237.59;5035654;28;20037;-71
2021/12/29 06:34:44;;;;;;;36.78;16.55;;;;;;;6.52;100.00;99250.88;5036711;28;20053;-75
2021/12/29 06:37:12;;;;;;;30.58;15.52;;;;;;;6.55;100.00;99255.84;5036825;28;20056;-76
2021/12/29 06:39:39;;;;;;;31.67;16.10;;;;;;;6.45;100.00;99249.81;5035372;28;20030;-75
2021/12/29 06:42:04;;;;;;;29.90;14.57;;;;;;;6.35;100.00;99250.69;5036326;28;20022;-72
2021/12/29 06:44:30;;;;;;;31.73;15.82;;;;;;;6.47;100.00;99263.66;5034768;28;20022;-71
2021/12/29 06:46:56;;;;;;;35.15;16.83;;;;;;;6.39;100.00;99252.06;5036243;28;20029;-71
2021/12/29 06:49:21;;;;;;;36.53;16.70;;;;;;;6.61;100.00;99248.19;5040872;28;20029;-76
2021/12/29 06:51:49;;;;;;;37.25;17.42;;;;;;;6.60;100.00;99264.13;5038640;28;20037;-72
2021/12/29 06:54:14;;;;;;;38.17;17.30;;;;;;;6.59;100.00;99273.81;5038892;28;20090;-71
2021/12/29 06:56:40;;;;;;;42.70;17.70;;;;;;;6.45;100.00;99257.72;5040539;28;20052;-76
2021/12/29 06:59:06;;;;;;;40.28;18.60;;;;;;;6.49;100.00;99262.53;5036652;28;20389;-77
2021/12/29 07:01:31;;;;;;;41.30;16.05;;;;;;;6.48;100.00;99271.38;5035501;28;20068;-76
2021/12/29 07:03:57;;;;;;;50.22;20.95;;;;;;;6.53;100.00;99269.13;5040716;28;20037;-72
2021/12/29 07:06:23;;;;;;;45.53;21.15;;;;;;;6.54;100.00;99289.22;5039657;28;20043;-70
2021/12/29 07:08:48;;;;;;;41.30;19.17;;;;;;;6.45;100.00;99261.16;5039648;28;20026;-71
2021/12/29 07:11:14;;;;;;;38.50;17.77;;;;;;;6.67;100.00;99280.97;5038955;28;20612;-71
2021/12/29 07:13:39;;;;;;;41.88;18.23;;;;;;;6.62;100.00;99288.47;5032358;28;20144;-76
2021/12/29 07:16:05;;;;;;;45.83;20.08;;;;;;;6.61;100.00;99290.28;5022338;28;20030;-76
2021/12/29 07:18:30;;;;;;;36.88;18.50;;;;;;;6.83;100.00;99290.81;5021927;28;20113;-76
2021/12/29 07:20:55;;;;;;;34.35;15.80;;;;;;;6.67;100.00;99273.91;5022177;28;20040;-76
2021/12/29 07:23:21;;;;;;;27.70;14.80;;;;;;;6.80;100.00;99291.94;5022166;28;20044;-75
2021/12/29 07:25:46;;;;;;;32.03;14.25;;;;;;;6.66;100.00;99293.28;5022242;28;20195;-71
2021/12/29 07:28:12;;;;;;;35.10;15.93;;;;;;;6.70;100.00;99289.38;5020566;28;20036;-76
2021/12/29 07:30:37;;;;;;;31.93;16.77;;;;;;;6.45;100.00;99276.94;5022275;28;20097;-72
2021/12/29 07:33:03;;;;;;;38.13;18.58;;;;;;;6.54;100.00;99280.50;5022000;28;20041;-77
2021/12/29 07:35:29;;;;;;;32.60;16.53;;;;;;;6.60;100.00;99291.25;5020620;28;20030;-76
2021/12/29 07:37:55;;;;;;;36.08;17.33;;;;;;;6.28;100.00;99273.28;5021839;28;20042;-71
2021/12/29 07:40:20;;;;;;;39.97;19.42;;;;;;;6.39;100.00;99281.00;5020950;28;20026;-72
2021/12/29 07:42:46;;;;;;;43.10;19.15;;;;;;;6.29;100.00;99260.97;5021607;28;20054;-75
2021/12/29 07:45:12;;;;;;;36.00;19.17;;;;;;;6.59;100.00;99280.88;5022020;28;20061;-70
2021/12/29 07:47:45;;;;;;;37.50;15.90;;;;;;;6.50;100.00;99277.31;5021854;28;20030;-75
2021/12/29 07:50:11;;;;;;;44.53;17.65;;;;;;;6.30;100.00;99245.06;5021578;28;20021;-76
2021/12/29 07:52:36;;;;;;;37.30;18.65;;;;;;;6.55;100.00;99269.00;5021515;28;20046;-71
2021/12/29 07:55:02;;;;;;;40.97;19.13;;;;;;;6.70;100.00;99281.50;5022010;28;20089;-72
2021/12/29 07:57:28;;;;;;;41.67;20.63;;;;;;;6.61;100.00;99276.28;5021797;28;20096;-75
2021/12/29 07:59:54;;;;;;;40.30;19.63;;;;;;;6.65;100.00;99275.03;5021955;28;20247;-76
2021/12/29 08:02:19;;;;;;;40.28;20.48;;;;;;;6.65;100.00;99280.28;5020877;28;20026;-75
2021/12/29 08:04:47;;;;;;;39.90;18.35;;;;;;;6.55;100.00;99279.50;5021734;28;20033;-76
2021/12/29 08:07:14;;;;;;;35.67;16.73;;;;;;;6.53;100.00;99265.69;5022327;28;20029;-76
2021/12/29 08:09:39;;;;;;;33.97;17.25;;;;;;;6.71;100.00;99282.31;5022809;28;20148;-76
2021/12/29 08:12:05;;;;;;;38.28;18.23;;;;;;;6.68;100.00;99269.47;5022914;28;20033;-76
2021/12/29 08:14:30;;;;;;;32.35;16.50;;;;;;;6.94;100.00;99283.53;5025519;28;20093;-70
2021/12/29 08:16:56;;;;;;;35.30;17.00;;;;;;;7.00;100.00;99290.84;5025900;28;20030;-72
2021/12/29 08:19:22;;;;;;;30.70;15.68;;;;;;;7.16;100.00;99292.78;5023900;28;20056;-75
2021/12/29 08:21:47;;;;;;;23.75;13.02;;;;;;;7.23;100.00;99285.94;5025320;28;20084;-76
2021/12/29 08:24:12;;;;;;;23.17;13.38;;;;;;;7.38;100.00;99283.63;5024160;28;20036;-76
2021/12/29 08:26:38;;;;;;;22.23;11.80;;;;;;;7.56;100.00;99284.41;5024946;28;20030;-71
2021/12/29 08:29:03;;;;;;;19.58;11.05;;;;;;;7.68;100.00;99280.53;5025087;28;20092;-72
2021/12/29 08:31:30;;;;;;;24.45;12.38;;;;;;;7.62;100.00;99289.06;5025013;28;20056;-72
2021/12/29 08:33:56;;;;;;;21.65;10.63;;;;;;;7.64;100.00;99273.09;5024570;28;20045;-76
2021/12/29 08:36:23;;;;;;;17.67;10.27;;;;;;;7.75;100.00;99282.56;5025387;28;20034;-72
2021/12/29 08:38:48;;;;;;;20.30;9.85;;;;;;;7.60;100.00;99291.03;5024781;28;20295;-76
2021/12/29 08:41:14;;;;;;;18.17;10.57;;;;;;;7.59;100.00;99272.75;5024717;28;20363;-76
2021/12/29 08:43:39;;;;;;;21.98;10.18;;;;;;;7.62;100.00;99288.25;5025064;28;20041;-77
2021/12/29 08:46:05;;;;;;;14.20;8.80;;;;;;;7.64;100.00;99289.75;5024985;28;20022;-76
2021/12/29 08:48:31;;;;;;;17.95;9.75;;;;;;;7.80;100.00;99286.38;5023258;28;20049;-76
2021/12/29 08:50:59;;;;;;;21.58;10.05;;;;;;;7.69;100.00;99286.63;5024421;28;20062;-77
2021/12/29 08:53:25;;;;;;;16.27;9.60;;;;;;;7.74;100.00;99276.47;5024513;28;20040;-76
2021/12/29 08:55:51;;;;;;;18.92;11.32;;;;;;;7.89;100.00;99284.63;5024676;28;20278;-72
2021/12/29 08:58:17;;;;;;;17.98;10.15;;;;;;;7.88;100.00;99280.31;5040972;28;20038;-71
2021/12/29 09:00:43;;;;;;;18.98;10.15;;;;;;;8.04;100.00;99274.31;5044432;28;20112;-71
2021/12/29 09:03:09;;;;;;;22.77;10.50;;;;;;;7.93;100.00;99276.25;5044188;28;20052;-76
2021/12/29 09:05:36;;;;;;;17.50;10.05;;;;;;;7.65;100.00;99277.38;5042604;28;20033;-70
2021/12/29 09:08:02;;;;;;;19.67;12.70;;;;;;;7.71;100.00;99268.03;5042917;28;20276;-73
2021/12/29 09:10:28;;;;;;;19.65;10.63;;;;;;;7.92;100.00;99264.03;5044190;28;20263;-76
2021/12/29 09:12:54;;;;;;;18.80;11.73;;;;;;;7.84;100.00;99265.81;5043544;28;20084;-71
2021/12/29 09:15:20;;;;;;;17.27;11.43;;;;;;;7.74;100.00;99265.91;5042470;28;20052;-76
2021/12/29 09:17:46;;;;;;;16.95;10.30;;;;;;;7.95;100.00;99263.72;5044127;28;20029;-76
2021/12/29 09:20:16;;;;;;;13.30;9.30;;;;;;;8.14;100.00;99248.66;5043638;28;20343;-71
2021/12/29 09:22:42;;;;;;;16.02;9.63;;;;;;;8.15;100.00;99250.31;5042042;28;20056;-74
2021/12/29 09:25:09;;;;;;;14.00;9.57;;;;;;;8.01;100.00;99231.47;5043913;28;20215;-72
2021/12/29 09:27:35;;;;;;;20.30;11.80;;;;;;;7.89;100.00;99224.81;5043678;28;20080;-76
2021/12/29 09:30:00;;;;;;;16.33;10.07;;;;;;;7.83;100.00;99221.97;5042401;28;20033;-76
2021/12/29 09:32:30;;;;;;;17.60;10.07;;;;;;;7.76;100.00;99234.97;5043959;28;20087;-71
2021/12/29 09:34:59;;;;;;;22.10;12.25;;;;;;;7.96;100.00;99219.75;5043561;28;20453;-77
2021/12/29 09:37:26;;;;;;;18.42;11.35;;;;;;;7.77;100.00;99231.34;5043529;28;20331;-76
2021/12/29 09:39:51;;;;;;;20.30;11.57;;;;;;;8.06;100.00;99220.44;5043861;28;20029;-76
2021/12/29 09:42:17;;;;;;;19.13;11.02;;;;;;;8.02;100.00;99219.09;5042371;28;20100;-70
2021/12/29 09:44:43;;;;;;;17.27;10.40;;;;;;;8.08;100.00;99220.28;5043598;28;20056;-74
2021/12/29 09:47:10;;;;;;;28.17;17.35;;;;;;;8.28;100.00;99221.66;5043244;28;20112;-71
2021/12/29 09:49:37;;;;;;;14.82;10.30;;;;;;;8.21;100.00;99218.84;5043244;28;20017;-71
2021/12/29 09:52:04;;;;;;;24.10;12.80;;;;;;;8.33;100.00;99216.81;5042715;28;20103;-72
2021/12/29 09:54:30;;;;;;;12.82;9.05;;;;;;;8.42;100.00;99220.28;5043292;28;20029;-71
2021/12/29 09:56:56;;;;;;;34.40;19.95;;;;;;;8.52;100.00;99216.53;5043203;28;20200;-71
2021/12/29 09:59:23;;;;;;;25.50;17.00;;;;;;;8.55;100.00;99210.09;5043121;28;20033;-76
2021/12/29 10:01:49;;;;;;;23.48;12.75;;;;;;;8.53;100.00;99204.16;5043391;28;20071;-71
2021/12/29 10:04:14;;;;;;;12.15;7.00;;;;;;;8.51;100.00;99212.22;5042893;28;20355;-71
2021/12/29 10:06:40;;;;;;;12.15;7.93;;;;;;;8.24;100.00;99199.25;5043054;28;20045;-72
2021/12/29 10:09:14;;;;;;;15.50;10.10;;;;;;;8.17;100.00;99196.41;5043080;28;20037;-71
2021/12/29 10:11:40;;;;;;;14.73;8.73;;;;;;;8.26;100.00;99189.34;5043267;28;20033;-70
2021/12/29 10:14:11;;;;;;;13.73;8.60;;;;;;;8.13;100.00;99184.53;5042682;28;20033;-72
2021/12/29 10:16:37;;;;;;;10.50;7.25;;;;;;;8.01;100.00;99177.91;5043121;28;20037;-72
2021/12/29 10:19:07;;;;;;;12.63;6.90;;;;;;;7.99;100.00;99162.25;5042921;28;20319;-76
2021/12/29 10:21:33;;;;;;;13.88;6.45;;;;;;;8.29;100.00;99171.41;5042824;28;20349;-72
2021/12/29 10:24:01;;;;;;;11.73;7.50;;;;;;;8.29;100.00;99157.38;5042606;28;20048;-76
2021/12/29 10:26:30;;;;;;;13.23;8.60;;;;;;;8.39;100.00;99168.69;5042970;28;20038;-77
2021/12/29 10:29:02;;;;;;;9.98;7.38;;;;;;;8.44;100.00;99160.28;5042379;28;20048;-76
2021/12/29 10:31:38;;;;;;;7.97;5.85;;;;;;;8.38;100.00;99148.56;5042320;28;20037;-76
2021/12/29 10:34:11;;;;;;;10.57;5.95;;;;;;;8.48;100.00;99132.56;5060837;28;20096;-76
2021/12/29 10:36:39;;;;;;;8.83;6.63;;;;;;;8.74;100.00;99141.16;5061829;28;20045;-71
2021/12/29 10:39:10;;;;;;;15.30;8.68;;;;;;;8.52;100.00;99131.25;5061367;28;20661;-72
2021/12/29 10:42:10;;;;;;;11.95;8.10;;;;;;;8.48;100.00;99151.03;5076903;28;20075;-71
2021/12/29 10:44:42;;;;;;;9.90;7.10;;;;;;;8.52;100.00;99144.44;5064842;28;20040;-75
2021/12/29 10:47:14;;;;;;;8.63;6.57;;;;;;;8.70;100.00;99139.03;5077098;28;20238;-69
2021/12/29 10:49:49;;;;;;;10.05;6.85;;;;;;;8.71;100.00;99130.94;5061150;28;20043;-70
2021/12/29 10:52:14;;;;;;;13.63;6.97;;;;;;;8.66;100.00;99135.88;5042934;28;20034;-70
2021/12/29 10:54:41;;;;;;;13.43;7.85;;;;;;;8.95;100.00;99138.84;5041392;28;20049;-74
2021/12/29 10:57:09;;;;;;;8.85;6.20;;;;;;;8.94;100.00;99150.41;5041432;28;20067;-69
2021/12/29 10:59:41;;;;;;;8.25;5.60;;;;;;;9.06;100.00;99142.97;5041211;28;20334;-69
2021/12/29 11:02:08;;;;;;;7.53;5.57;;;;;;;9.13;100.00;99140.47;5057495;28;20202;-75
2021/12/29 11:04:33;;;;;;;10.27;5.80;;;;;;;9.17;100.00;99149.72;5059762;28;20286;-74
2021/12/29 11:07:01;;;;;;;11.18;7.65;;;;;;;9.10;100.00;99124.97;5061016;28;20053;-69
2021/12/29 11:09:26;;;;;;;8.88;5.43;;;;;;;9.15;100.00;99138.50;5061141;28;20045;-69
2021/12/29 11:11:52;;;;;;;8.25;5.05;;;;;;;9.20;100.00;99139.63;5076356;28;20226;-70
2021/12/29 11:14:42;;;;;;;6.90;4.75;;;;;;;9.11;100.00;99135.38;5060860;28;20029;-75
2021/12/29 11:17:19;;;;;;;14.55;8.35;;;;;;;9.11;100.00;99129.25;5060980;28;20386;-75
2021/12/29 11:19:54;;;;;;;23.02;12.00;;;;;;;8.66;100.00;99098.94;5039899;28;20025;-74
2021/12/29 11:22:22;;;;;;;34.88;16.83;;;;;;;9.08;100.00;99132.22;5041256;28;20133;-69
2021/12/29 11:24:58;;;;;;;51.33;26.38;;;;;;;9.19;100.00;99119.50;5040977;28;20249;-69